Time;durP1;ratioP1;P1;durP2;ratioP2;P2;SDS_P1;SDS_P2;PMS_P1;PMS_P2;Temp;Humidity;BMP_temperature;BMP_pressure;BME280_temperature;BME280_humidity;BME280_pressure;Samples;Min_cycle;Max_cycle;Signal;HPM_P1;HPM_P2
2023/06/19 00:00:06;;;;;;;;;;;17.60;99.90;;;;;;5019914;28;20262;-82
2023/06/19 00:02:32;;;;;;;;;;;17.50;99.90;;;;;;5028977;28;19909;-82
2023/06/19 00:04:58;;;;;;;;;;;17.50;99.90;;;;;;5022110;28;20288;-81
2023/06/19 00:07:23;;;;;;;;;;;17.40;99.90;;;;;;5039818;28;19909;-81
2023/06/19 00:09:49;;;;;;;;;;;17.40;99.90;;;;;;5039447;28;19913;-81
2023/06/19 00:12:14;;;;;;;;;;;17.30;99.90;;;;;;5039541;28;19909;-81
2023/06/19 00:14:40;;;;;;;;;;;17.30;99.90;;;;;;5040565;28;19916;-82
2023/06/19 00:17:06;;;;;;;;;;;17.30;99.90;;;;;;5040037;28;19959;-82
2023/06/19 00:19:33;;;;;;;;;;;17.30;99.90;;;;;;5039165;28;19979;-82
2023/06/19 00:22:00;;;;;;;;;;;17.30;99.90;;;;;;5039655;28;20399;-82
2023/06/19 00:24:25;;;;;;;;;;;17.20;99.90;;;;;;5031947;28;19920;-82
2023/06/19 00:26:51;;;;;;;;;;;17.10;99.90;;;;;;5020327;28;19910;-82
2023/06/19 00:29:16;;;;;;;;;;;16.80;99.90;;;;;;5001791;28;19914;-82
2023/06/19 00:31:42;;;;;;;;;;;16.60;99.90;;;;;;5020760;28;19914;-81
2023/06/19 00:34:07;;;;;;;;;;;16.60;99.90;;;;;;5026676;28;19917;-81
2023/06/19 00:36:40;;;;;;;;;;;16.60;99.90;;;;;;5006871;28;20021;-81
2023/06/19 00:39:06;;;;;;;;;;;16.60;99.90;;;;;;5007101;28;19909;-81
2023/06/19 00:41:32;;;;;;;;;;;16.60;99.90;;;;;;5005809;28;19918;-81
2023/06/19 00:43:57;;;;;;;;;;;16.60;99.90;;;;;;5013711;28;19913;-81
2023/06/19 00:46:23;;;;;;;;;;;16.60;99.90;;;;;;4996167;28;19928;-81
2023/06/19 00:48:48;;;;;;;;;;;16.60;99.90;;;;;;5001772;28;19956;-81
2023/06/19 00:51:14;;;;;;;;;;;16.60;99.90;;;;;;5005280;28;19917;-81
2023/06/19 00:53:40;;;;;;;;;;;16.60;99.90;;;;;;5010849;28;20358;-81
2023/06/19 00:56:05;;;;;;;;;;;16.60;99.90;;;;;;5006193;28;19973;-81
2023/06/19 00:58:31;;;;;;;;;;;16.60;99.90;;;;;;4985071;28;19944;-82
2023/06/19 01:00:57;;;;;;;;;;;16.60;99.90;;;;;;5019079;28;19905;-81
2023/06/19 01:03:23;;;;;;;;;;;16.60;99.90;;;;;;5009061;28;20358;-81
2023/06/19 01:05:51;;;;;;;;;;;16.50;99.90;;;;;;5018959;28;19917;-81
2023/06/19 01:08:46;;;;;;;;;;;16.50;99.90;;;;;;5018413;28;19928;-82
2023/06/19 01:11:13;;;;;;;;;;;16.40;99.90;;;;;;5006197;28;19910;-82
2023/06/19 01:13:45;;;;;;;;;;;16.40;99.90;;;;;;5018999;28;19905;-82
2023/06/19 01:16:11;;;;;;;;;;;16.40;99.90;;;;;;5001113;28;19906;-82
2023/06/19 01:18:38;;;;;;;;;;;16.30;99.90;;;;;;5018631;28;19925;-81
2023/06/19 01:21:14;;;;;;;;;;;16.20;99.90;;;;;;5000917;28;19909;-81
2023/06/19 01:23:40;;;;;;;;;;;16.10;99.90;;;;;;5018374;28;20021;-81
2023/06/19 01:26:06;;;;;;;;;;;16.10;99.90;;;;;;5001676;28;19916;-81
2023/06/19 01:28:33;;;;;;;;;;;16.10;99.90;;;;;;5018758;28;20292;-81
2023/06/19 01:31:00;;;;;;;;;;;16.10;99.90;;;;;;5017581;28;19944;-81
2023/06/19 01:33:27;;;;;;;;;;;16.10;99.90;;;;;;5040449;23;20356;-79
2023/06/19 01:35:53;;;;;;;;;;;16.00;99.90;;;;;;5065096;28;20323;-79
2023/06/19 01:38:20;;;;;;;;;;;15.90;99.90;;;;;;5064845;28;19912;-79
2023/06/19 01:40:46;;;;;;;;;;;15.80;99.90;;;;;;5064174;28;19909;-80
2023/06/19 01:43:12;;;;;;;;;;;15.70;99.90;;;;;;5055776;28;19917;-79
2023/06/19 01:45:38;;;;;;;;;;;15.70;99.90;;;;;;5034639;28;19932;-80
2023/06/19 01:48:04;;;;;;;;;;;15.70;99.90;;;;;;5056642;28;19923;-80
2023/06/19 01:50:29;;;;;;;;;;;15.80;99.90;;;;;;5038039;28;20311;-80
2023/06/19 01:52:55;;;;;;;;;;;15.80;99.90;;;;;;5041545;28;19927;-81
2023/06/19 01:55:21;;;;;;;;;;;15.80;99.90;;;;;;5052098;28;19913;-79
2023/06/19 01:57:46;;;;;;;;;;;15.80;99.90;;;;;;5032829;28;19913;-80
2023/06/19 02:00:12;;;;;;;;;;;15.90;99.90;;;;;;5051975;28;20395;-79
2023/06/19 02:02:38;;;;;;;;;;;15.80;99.90;;;;;;5044114;28;20360;-79
2023/06/19 02:05:04;;;;;;;;;;;15.80;99.90;;;;;;5055573;28;19917;-81
2023/06/19 02:07:30;;;;;;;;;;;15.80;99.90;;;;;;5057890;28;19909;-79
2023/06/19 02:09:56;;;;;;;;;;;15.80;99.90;;;;;;5046623;28;20398;-79
2023/06/19 02:12:21;;;;;;;;;;;15.70;99.90;;;;;;5064452;28;19912;-79
2023/06/19 02:14:47;;;;;;;;;;;15.70;99.90;;;;;;5064908;28;19951;-80
2023/06/19 02:17:12;;;;;;;;;;;15.70;99.90;;;;;;5047742;28;19912;-79
2023/06/19 02:19:38;;;;;;;;;;;15.70;99.90;;;;;;5066343;28;19973;-79
2023/06/19 02:22:04;;;;;;;;;;;15.70;99.90;;;;;;5065635;28;20059;-79
2023/06/19 02:24:29;;;;;;;;;;;15.80;99.90;;;;;;5065940;28;19991;-80
2023/06/19 02:26:55;;;;;;;;;;;15.70;99.90;;;;;;5066358;28;19909;-79
2023/06/19 02:29:20;;;;;;;;;;;15.80;99.90;;;;;;5065385;28;19981;-79
2023/06/19 02:31:47;;;;;;;;;;;15.70;99.90;;;;;;5061802;28;20262;-79
2023/06/19 02:34:12;;;;;;;;;;;15.70;99.90;;;;;;5052591;28;20308;-79
2023/06/19 02:36:38;;;;;;;;;;;15.60;99.90;;;;;;5032871;28;19943;-80
2023/06/19 02:39:04;;;;;;;;;;;15.60;99.90;;;;;;5051919;28;19980;-80
2023/06/19 02:41:29;;;;;;;;;;;15.60;99.90;;;;;;5036704;28;19905;-79
2023/06/19 02:43:55;;;;;;;;;;;15.60;99.90;;;;;;5044514;28;19915;-79
2023/06/19 02:46:20;;;;;;;;;;;15.60;99.90;;;;;;5045662;28;19909;-80
2023/06/19 02:48:46;;;;;;;;;;;15.60;99.90;;;;;;5063329;28;19920;-80
2023/06/19 02:51:11;;;;;;;;;;;15.60;99.90;;;;;;5045455;28;19920;-79
2023/06/19 02:53:37;;;;;;;;;;;15.60;99.90;;;;;;5064544;28;19920;-80
2023/06/19 02:56:03;;;;;;;;;;;15.60;99.90;;;;;;5030341;28;19913;-80
2023/06/19 02:58:29;;;;;;;;;;;15.50;99.90;;;;;;5046859;28;19920;-79
2023/06/19 03:00:54;;;;;;;;;;;15.40;99.90;;;;;;5045865;28;19916;-79
2023/06/19 03:03:20;;;;;;;;;;;15.30;99.90;;;;;;5064886;28;19935;-79
2023/06/19 03:05:45;;;;;;;;;;;15.30;99.90;;;;;;5066186;28;19920;-79
2023/06/19 03:08:11;;;;;;;;;;;15.20;99.90;;;;;;5065854;28;19917;-79
2023/06/19 03:10:36;;;;;;;;;;;15.30;99.90;;;;;;5047809;28;19943;-79
2023/06/19 03:13:02;;;;;;;;;;;15.30;99.90;;;;;;5047367;28;19908;-79
2023/06/19 03:15:27;;;;;;;;;;;15.30;99.90;;;;;;5065140;28;20261;-79
2023/06/19 03:17:53;;;;;;;;;;;15.40;99.90;;;;;;5064370;28;19916;-80
2023/06/19 03:20:19;;;;;;;;;;;15.40;99.90;;;;;;5063286;28;19915;-79
2023/06/19 03:22:46;;;;;;;;;;;15.40;99.90;;;;;;5041285;28;20372;-80
2023/06/19 03:25:11;;;;;;;;;;;15.40;99.90;;;;;;5051201;28;19958;-83
2023/06/19 03:27:37;;;;;;;;;;;15.40;99.90;;;;;;5038961;28;19916;-79
2023/06/19 03:30:06;;;;;;;;;;;15.50;99.90;;;;;;5065732;28;19904;-80
2023/06/19 03:32:32;;;;;;;;;;;15.40;99.90;;;;;;5065672;28;19970;-79
2023/06/19 03:34:58;;;;;;;;;;;15.40;99.90;;;;;;5048295;28;19916;-80
2023/06/19 03:37:23;;;;;;;;;;;15.40;99.90;;;;;;5066390;28;19913;-79
2023/06/19 03:39:49;;;;;;;;;;;15.30;99.90;;;;;;5030097;28;19944;-84
2023/06/19 03:42:14;;;;;;;;;;;15.30;99.90;;;;;;5058490;28;19909;-81
2023/06/19 03:44:40;;;;;;;;;;;15.30;99.90;;;;;;5040157;28;19913;-81
2023/06/19 03:47:06;;;;;;;;;;;15.30;99.90;;;;;;5044175;28;20300;-82
2023/06/19 03:49:31;;;;;;;;;;;15.30;99.90;;;;;;5021554;28;20387;-82
2023/06/19 03:51:57;;;;;;;;;;;15.30;99.90;;;;;;5050458;28;19917;-81
2023/06/19 03:54:23;;;;;;;;;;;15.30;99.90;;;;;;5050849;28;19935;-82
2023/06/19 03:56:48;;;;;;;;;;;15.30;99.90;;;;;;5044611;28;19996;-81
2023/06/19 03:59:14;;;;;;;;;;;15.30;99.90;;;;;;5051091;28;19919;-82
2023/06/19 04:01:40;;;;;;;;;;;15.30;99.90;;;;;;5054494;28;19913;-82
2023/06/19 04:04:06;;;;;;;;;;;15.20;99.90;;;;;;5050175;28;19909;-81
2023/06/19 04:06:31;;;;;;;;;;;15.10;99.90;;;;;;5061967;28;20061;-82
2023/06/19 04:08:57;;;;;;;;;;;15.10;99.90;;;;;;5043806;28;19939;-81
2023/06/19 04:11:22;;;;;;;;;;;15.10;99.90;;;;;;5043674;28;19916;-81
2023/06/19 04:13:48;;;;;;;;;;;15.20;99.90;;;;;;5062545;28;19919;-81
2023/06/19 04:16:13;;;;;;;;;;;15.20;99.90;;;;;;5041479;28;19920;-82
2023/06/19 04:18:39;;;;;;;;;;;15.30;99.90;;;;;;5031083;28;19908;-82
2023/06/19 04:21:04;;;;;;;;;;;15.30;99.90;;;;;;5030976;28;19913;-82
2023/06/19 04:23:30;;;;;;;;;;;15.30;99.90;;;;;;5020800;28;19908;-82
2023/06/19 04:25:55;;;;;;;;;;;15.40;99.90;;;;;;5056127;28;19959;-81
2023/06/19 04:28:21;;;;;;;;;;;15.40;99.90;;;;;;5048215;28;19920;-82
2023/06/19 04:30:46;;;;;;;;;;;15.40;99.90;;;;;;5052845;28;19921;-82
2023/06/19 04:33:12;;;;;;;;;;;15.50;99.90;;;;;;5037783;28;19948;-83
2023/06/19 04:35:39;;;;;;;;;;;15.50;99.90;;;;;;5057316;28;19916;-82
2023/06/19 04:38:05;;;;;;;;;;;15.50;99.90;;;;;;5023579;28;20296;-82
2023/06/19 04:40:32;;;;;;;;;;;15.40;99.90;;;;;;5022292;28;19909;-83
2023/06/19 04:42:57;;;;;;;;;;;15.40;99.90;;;;;;5045300;28;19915;-84
2023/06/19 04:45:23;;;;;;;;;;;15.40;99.90;;;;;;5042304;28;19940;-83
2023/06/19 04:47:48;;;;;;;;;;;15.50;99.90;;;;;;5059379;28;19920;-83
2023/06/19 04:50:16;;;;;;;;;;;15.50;99.90;;;;;;5055744;28;19916;-83
2023/06/19 04:52:41;;;;;;;;;;;15.50;99.90;;;;;;5040811;28;19943;-83
2023/06/19 04:55:10;;;;;;;;;;;15.50;99.90;;;;;;5064252;28;19908;-82
2023/06/19 04:57:36;;;;;;;;;;;15.50;99.90;;;;;;5045199;28;19930;-82
2023/06/19 05:00:06;;;;;;;;;;;15.50;99.90;;;;;;5063941;28;19959;-81
2023/06/19 05:02:33;;;;;;;;;;;15.60;99.90;;;;;;5065649;28;19909;-81
2023/06/19 05:05:02;;;;;;;;;;;15.60;99.90;;;;;;5064049;28;19909;-82
2023/06/19 05:07:31;;;;;;;;;;;15.60;99.90;;;;;;5063530;28;19909;-81
2023/06/19 05:09:57;;;;;;;;;;;15.60;99.90;;;;;;5062468;28;20281;-81
2023/06/19 05:12:22;;;;;;;;;;;15.60;99.90;;;;;;5063111;28;19909;-81
2023/06/19 05:14:48;;;;;;;;;;;15.60;99.90;;;;;;5045467;28;19908;-82
2023/06/19 05:17:14;;;;;;;;;;;15.50;99.90;;;;;;5064889;28;19908;-82
2023/06/19 05:19:39;;;;;;;;;;;15.40;99.90;;;;;;5065056;28;19909;-82
2023/06/19 05:22:06;;;;;;;;;;;15.40;99.90;;;;;;5045170;28;20008;-82
2023/06/19 05:24:31;;;;;;;;;;;15.40;99.90;;;;;;5063890;28;19951;-82
2023/06/19 05:26:57;;;;;;;;;;;15.40;99.90;;;;;;5047305;28;19909;-82
2023/06/19 05:29:23;;;;;;;;;;;15.40;99.90;;;;;;5047453;28;19916;-82
2023/06/19 05:31:48;;;;;;;;;;;15.50;99.90;;;;;;5058445;28;20356;-82
2023/06/19 05:34:14;;;;;;;;;;;15.50;99.90;;;;;;5041628;28;20269;-82
2023/06/19 05:36:39;;;;;;;;;;;15.60;99.90;;;;;;5044567;28;19936;-82
2023/06/19 05:39:05;;;;;;;;;;;15.60;99.90;;;;;;5043921;28;19931;-82
2023/06/19 05:41:30;;;;;;;;;;;15.60;99.90;;;;;;5044316;28;19962;-82
2023/06/19 05:43:56;;;;;;;;;;;15.60;99.90;;;;;;5061815;28;19999;-82
2023/06/19 05:46:22;;;;;;;;;;;15.60;99.90;;;;;;5062132;28;19913;-82
2023/06/19 05:48:47;;;;;;;;;;;15.70;99.90;;;;;;5043374;28;19908;-82
2023/06/19 05:51:13;;;;;;;;;;;15.70;99.90;;;;;;5062183;28;19921;-82
2023/06/19 05:53:40;;;;;;;;;;;15.80;99.90;;;;;;5062403;28;19916;-82
2023/06/19 05:56:05;;;;;;;;;;;15.90;99.90;;;;;;5027374;28;19915;-82
2023/06/19 05:58:31;;;;;;;;;;;15.90;99.90;;;;;;5062238;28;19940;-82
2023/06/19 06:00:57;;;;;;;;;;;15.90;99.90;;;;;;5061571;28;19915;-82
2023/06/19 06:03:24;;;;;;;;;;;16.00;99.90;;;;;;5042206;28;19912;-82
2023/06/19 06:05:49;;;;;;;;;;;16.10;99.90;;;;;;5042569;28;19951;-82
2023/06/19 06:08:15;;;;;;;;;;;16.20;99.90;;;;;;5060250;28;19909;-82
2023/06/19 06:10:40;;;;;;;;;;;16.30;99.90;;;;;;5043488;28;19912;-82
2023/06/19 06:13:06;;;;;;;;;;;16.30;99.90;;;;;;5061348;28;20383;-82
2023/06/19 06:15:31;;;;;;;;;;;16.40;99.90;;;;;;5027149;28;19913;-82
2023/06/19 06:17:57;;;;;;;;;;;16.50;99.90;;;;;;5043141;28;19913;-82
2023/06/19 06:20:22;;;;;;;;;;;16.50;99.90;;;;;;5060760;28;20296;-82
2023/06/19 06:22:48;;;;;;;;;;;16.50;99.90;;;;;;5059364;28;20015;-82
2023/06/19 06:25:13;;;;;;;;;;;16.60;99.90;;;;;;5059683;28;20283;-82
2023/06/19 06:27:39;;;;;;;;;;;16.70;99.90;;;;;;5059995;28;19908;-82
2023/06/19 06:30:05;;;;;;;;;;;16.70;99.90;;;;;;5059586;28;19905;-82
2023/06/19 06:32:30;;;;;;;;;;;16.80;99.90;;;;;;5057025;28;19944;-82
2023/06/19 06:34:56;;;;;;;;;;;16.80;99.90;;;;;;5060306;28;19956;-82
2023/06/19 06:37:25;;;;;;;;;;;16.80;99.90;;;;;;5042465;28;19916;-82
2023/06/19 06:39:51;;;;;;;;;;;16.90;99.90;;;;;;5061796;28;19971;-82
2023/06/19 06:42:16;;;;;;;;;;;16.90;99.90;;;;;;5063257;28;19952;-82
2023/06/19 06:44:42;;;;;;;;;;;17.00;99.90;;;;;;5062880;28;19913;-82
2023/06/19 06:47:08;;;;;;;;;;;17.00;99.90;;;;;;5043579;28;19959;-83
2023/06/19 06:49:33;;;;;;;;;;;17.10;99.90;;;;;;5061510;28;19904;-83
2023/06/19 06:51:59;;;;;;;;;;;17.10;99.90;;;;;;5062673;28;19919;-83
2023/06/19 06:54:24;;;;;;;;;;;17.20;99.90;;;;;;5061406;28;19909;-83
2023/06/19 06:56:52;;;;;;;;;;;17.30;99.90;;;;;;5063357;28;19988;-83
2023/06/19 06:59:18;;;;;;;;;;;17.40;99.90;;;;;;5062251;28;20284;-83
2023/06/19 07:01:43;;;;;;;;;;;17.50;99.90;;;;;;5042329;28;19909;-82
2023/06/19 07:04:09;;;;;;;;;;;17.50;99.90;;;;;;5028895;28;19996;-82
2023/06/19 07:06:34;;;;;;;;;;;17.70;99.90;;;;;;5044453;28;19915;-82
2023/06/19 07:09:00;;;;;;;;;;;17.80;99.90;;;;;;5044270;28;19909;-82
2023/06/19 07:11:25;;;;;;;;;;;17.90;99.90;;;;;;5028936;28;19913;-82
2023/06/19 07:13:51;;;;;;;;;;;17.90;99.90;;;;;;5061070;28;20065;-82
2023/06/19 07:16:16;;;;;;;;;;;18.00;99.90;;;;;;5040306;28;19908;-82
2023/06/19 07:18:42;;;;;;;;;;;18.00;99.90;;;;;;5089092;22;19921;-73
2023/06/19 07:21:14;;;;;;;;;;;18.10;99.90;;;;;;5076370;28;19979;-73
2023/06/19 07:23:40;;;;;;;;;;;18.10;99.90;;;;;;5076380;28;20003;-73
2023/06/19 07:26:06;;;;;;;;;;;18.20;99.90;;;;;;5076558;28;19905;-73
2023/06/19 07:28:31;;;;;;;;;;;18.30;99.90;;;;;;5076287;28;20439;-73
2023/06/19 07:30:57;;;;;;;;;;;18.50;99.90;;;;;;5076285;28;20406;-73
2023/06/19 07:33:22;;;;;;;;;;;18.60;99.90;;;;;;5076132;28;20326;-73
2023/06/19 07:35:48;;;;;;;;;;;18.90;99.90;;;;;;5076414;28;19912;-73
2023/06/19 07:38:13;;;;;;;;;;;19.10;99.90;;;;;;5076103;28;19909;-73
2023/06/19 07:40:39;;;;;;;;;;;19.40;99.90;;;;;;5076315;28;19913;-74
2023/06/19 07:43:05;;;;;;;;;;;19.60;99.90;;;;;;5075975;28;19962;-74
2023/06/19 07:45:30;;;;;;;;;;;19.80;99.90;;;;;;5057979;28;19912;-74
2023/06/19 07:47:56;;;;;;;;;;;20.10;99.90;;;;;;5075956;28;19939;-74
2023/06/19 07:50:21;;;;;;;;;;;20.30;99.90;;;;;;5075276;28;19909;-75
2023/06/19 07:52:47;;;;;;;;;;;20.40;99.90;;;;;;5075860;28;19908;-74
2023/06/19 07:55:13;;;;;;;;;;;20.50;99.90;;;;;;5075760;28;19912;-74
2023/06/19 07:57:38;;;;;;;;;;;20.60;99.90;;;;;;5075793;28;20003;-74
2023/06/19 08:00:13;;;;;;;;;;;20.80;99.90;;;;;;5076030;28;19913;-74
2023/06/19 08:02:39;;;;;;;;;;;21.00;99.90;;;;;;5075859;28;20308;-74
2023/06/19 08:05:05;;;;;;;;;;;21.20;99.90;;;;;;5075524;28;19913;-74
2023/06/19 08:07:30;;;;;;;;;;;21.40;99.90;;;;;;5057625;28;19913;-75
2023/06/19 08:09:56;;;;;;;;;;;21.50;99.90;;;;;;5075411;28;20431;-75
2023/06/19 08:12:21;;;;;;;;;;;21.80;99.90;;;;;;5075999;28;19908;-76
2023/06/19 08:14:47;;;;;;;;;;;21.90;99.90;;;;;;5075887;28;19911;-78
2023/06/19 08:17:12;;;;;;;;;;;21.90;99.90;;;;;;5072793;28;19916;-75
2023/06/19 08:19:39;;;;;;;;;;;22.00;99.90;;;;;;5055125;28;19917;-75
2023/06/19 08:22:05;;;;;;;;;;;22.20;99.50;;;;;;5055056;28;19912;-76
2023/06/19 08:24:30;;;;;;;;;;;22.30;98.80;;;;;;5054944;28;19946;-75
2023/06/19 08:26:56;;;;;;;;;;;22.40;98.40;;;;;;5054254;28;19951;-76
2023/06/19 08:29:23;;;;;;;;;;;22.60;96.90;;;;;;5054908;28;19916;-75
2023/06/19 08:31:48;;;;;;;;;;;22.70;96.60;;;;;;5055151;28;19908;-76
2023/06/19 08:34:14;;;;;;;;;;;22.90;96.40;;;;;;5053827;28;20390;-77
2023/06/19 08:36:40;;;;;;;;;;;23.00;96.90;;;;;;5053747;28;19954;-76
2023/06/19 08:39:07;;;;;;;;;;;23.20;97.10;;;;;;5054902;28;19908;-74
2023/06/19 08:41:33;;;;;;;;;;;23.40;96.00;;;;;;5054827;28;20269;-74
2023/06/19 08:43:59;;;;;;;;;;;23.50;96.10;;;;;;5054769;28;19919;-75
2023/06/19 08:46:24;;;;;;;;;;;23.60;95.50;;;;;;5055004;28;19909;-74
2023/06/19 08:48:50;;;;;;;;;;;23.80;94.10;;;;;;5054723;28;19915;-74
2023/06/19 08:51:15;;;;;;;;;;;23.90;93.70;;;;;;5054708;28;19919;-74
2023/06/19 08:53:50;;;;;;;;;;;24.10;93.10;;;;;;5054632;28;19909;-75
2023/06/19 08:56:15;;;;;;;;;;;24.20;93.20;;;;;;5054831;28;20376;-74
2023/06/19 08:58:41;;;;;;;;;;;24.20;93.60;;;;;;5054772;28;19915;-73
2023/06/19 09:01:07;;;;;;;;;;;24.30;93.70;;;;;;5053638;28;19909;-76
2023/06/19 09:03:32;;;;;;;;;;;24.40;93.80;;;;;;5054591;28;20407;-76
2023/06/19 09:06:07;;;;;;;;;;;24.60;93.30;;;;;;5054475;28;19908;-76
2023/06/19 09:08:33;;;;;;;;;;;24.70;92.20;;;;;;5020274;28;19908;-74
2023/06/19 09:11:00;;;;;;;;;;;24.90;92.40;;;;;;5054193;28;19917;-74
2023/06/19 09:13:26;;;;;;;;;;;24.90;91.20;;;;;;5054284;28;20375;-76
2023/06/19 09:16:04;;;;;;;;;;;25.10;91.30;;;;;;5054436;28;19905;-74
2023/06/19 09:18:31;;;;;;;;;;;25.30;90.30;;;;;;5054109;28;19909;-77
2023/06/19 09:20:56;;;;;;;;;;;25.40;86.50;;;;;;5054193;28;19905;-77
2023/06/19 09:23:22;;;;;;;;;;;25.50;85.70;;;;;;5054161;28;19904;-76
2023/06/19 09:25:49;;;;;;;;;;;25.70;84.10;;;;;;5054364;28;20375;-76
2023/06/19 09:28:22;;;;;;;;;;;25.80;82.70;;;;;;5054112;28;19912;-76
2023/06/19 09:31:05;;;;;;;;;;;26.00;84.70;;;;;;5053874;28;19913;-77
2023/06/19 09:33:32;;;;;;;;;;;26.10;82.90;;;;;;5054544;28;19927;-77
2023/06/19 09:35:58;;;;;;;;;;;26.30;81.70;;;;;;5054255;28;19909;-77
2023/06/19 09:38:25;;;;;;;;;;;26.40;83.70;;;;;;5053941;28;19905;-77
2023/06/19 09:40:52;;;;;;;;;;;26.60;82.70;;;;;;5053873;28;19958;-77
2023/06/19 09:43:22;;;;;;;;;;;26.70;81.30;;;;;;5053825;28;20391;-76
2023/06/19 09:45:49;;;;;;;;;;;26.90;81.60;;;;;;5053762;28;20324;-76
2023/06/19 09:48:18;;;;;;;;;;;26.80;80.30;;;;;;5054116;28;19915;-77
2023/06/19 09:50:44;;;;;;;;;;;26.90;79.70;;;;;;5053626;28;19915;-77
2023/06/19 09:53:10;;;;;;;;;;;27.00;80.00;;;;;;5054086;28;19909;-76
2023/06/19 09:55:37;;;;;;;;;;;27.00;75.90;;;;;;5053765;28;19995;-77
2023/06/19 09:58:05;;;;;;;;;;;27.00;75.70;;;;;;5053755;28;19916;-77
2023/06/19 10:00:32;;;;;;;;;;;27.00;74.90;;;;;;5053676;28;19944;-76
2023/06/19 10:03:00;;;;;;;;;;;27.10;74.00;;;;;;5053818;28;19905;-77
2023/06/19 10:05:30;;;;;;;;;;;27.10;73.80;;;;;;5053620;28;19912;-77
2023/06/19 10:07:59;;;;;;;;;;;27.20;74.40;;;;;;5035740;28;19905;-77
2023/06/19 10:10:28;;;;;;;;;;;27.40;74.10;;;;;;5053580;28;20458;-77
2023/06/19 10:12:55;;;;;;;;;;;27.50;74.10;;;;;;5055895;28;19944;-76
2023/06/19 10:15:20;;;;;;;;;;;27.50;72.80;;;;;;5057646;28;20014;-77
2023/06/19 10:17:52;;;;;;;;;;;27.60;71.10;;;;;;5057556;28;19919;-77
2023/06/19 10:20:33;;;;;;;;;;;27.60;71.50;;;;;;5057789;28;19916;-77
2023/06/19 10:23:08;;;;;;;;;;;27.80;73.00;;;;;;5058315;28;19920;-77
2023/06/19 10:25:38;;;;;;;;;;;27.90;73.20;;;;;;5057801;28;19951;-77
2023/06/19 10:28:07;;;;;;;;;;;28.00;70.90;;;;;;5057571;28;19912;-77
2023/06/19 10:30:33;;;;;;;;;;;28.10;71.50;;;;;;5039726;28;19913;-77
2023/06/19 10:32:59;;;;;;;;;;;28.20;69.50;;;;;;5057581;28;19913;-77
2023/06/19 10:35:24;;;;;;;;;;;28.30;70.60;;;;;;5057758;28;19909;-77
2023/06/19 10:37:50;;;;;;;;;;;28.40;67.70;;;;;;5057317;28;19912;-77
2023/06/19 10:40:16;;;;;;;;;;;28.40;66.00;;;;;;5057690;28;20373;-77
2023/06/19 10:42:43;;;;;;;;;;;28.30;67.80;;;;;;5057180;28;19904;-77
2023/06/19 10:45:10;;;;;;;;;;;28.40;68.00;;;;;;5057350;28;19905;-77
2023/06/19 10:47:38;;;;;;;;;;;28.50;68.60;;;;;;5057366;28;19905;-77
2023/06/19 10:50:03;;;;;;;;;;;28.60;66.90;;;;;;5057525;28;19905;-76
2023/06/19 10:52:29;;;;;;;;;;;28.60;66.00;;;;;;5056796;28;19919;-76
2023/06/19 10:54:55;;;;;;;;;;;28.60;65.50;;;;;;5056925;28;20019;-76
2023/06/19 10:57:28;;;;;;;;;;;28.70;65.90;;;;;;5038889;28;19904;-76
2023/06/19 10:59:54;;;;;;;;;;;28.90;64.00;;;;;;5038386;28;19909;-77
2023/06/19 11:02:20;;;;;;;;;;;29.00;65.30;;;;;;5056730;28;19963;-76
2023/06/19 11:04:45;;;;;;;;;;;29.10;64.80;;;;;;5056679;28;20046;-74
2023/06/19 11:07:12;;;;;;;;;;;29.10;64.40;;;;;;5055280;28;20318;-74
2023/06/19 11:09:37;;;;;;;;;;;29.20;66.30;;;;;;5057126;28;19962;-74
2023/06/19 11:12:03;;;;;;;;;;;29.20;64.00;;;;;;5056383;28;19917;-74
2023/06/19 11:14:29;;;;;;;;;;;29.40;61.90;;;;;;5056666;28;19935;-74
2023/06/19 11:16:55;;;;;;;;;;;29.40;62.30;;;;;;5056519;28;20345;-76
2023/06/19 11:19:21;;;;;;;;;;;29.40;60.50;;;;;;5056358;28;19917;-74
2023/06/19 11:21:48;;;;;;;;;;;29.50;60.60;;;;;;5056400;28;20322;-74
2023/06/19 11:24:14;;;;;;;;;;;29.50;59.20;;;;;;5055531;28;20268;-74
2023/06/19 11:26:43;;;;;;;;;;;29.50;55.90;;;;;;5056378;28;19915;-74
2023/06/19 11:29:15;;;;;;;;;;;29.60;59.30;;;;;;5056316;28;19963;-74
2023/06/19 11:31:41;;;;;;;;;;;29.80;58.90;;;;;;5056098;28;19948;-74
2023/06/19 11:34:07;;;;;;;;;;;30.00;59.00;;;;;;5056213;28;19951;-74
2023/06/19 11:36:36;;;;;;;;;;;30.10;57.70;;;;;;5056446;28;19916;-74
2023/06/19 11:39:04;;;;;;;;;;;30.30;57.90;;;;;;5056123;28;19905;-74
2023/06/19 11:41:30;;;;;;;;;;;30.40;58.90;;;;;;5065438;28;19908;-74
2023/06/19 11:44:03;;;;;;;;;;;30.40;56.80;;;;;;5076354;28;20379;-74
2023/06/19 11:46:30;;;;;;;;;;;30.40;56.30;;;;;;5058029;28;20006;-74
2023/06/19 11:49:06;;;;;;;;;;;30.30;54.40;;;;;;5076000;28;19971;-74
2023/06/19 11:51:32;;;;;;;;;;;30.30;55.60;;;;;;5075050;28;19912;-74
2023/06/19 11:53:57;;;;;;;;;;;30.30;55.60;;;;;;5075860;28;20416;-76
2023/06/19 11:56:23;;;;;;;;;;;30.30;56.90;;;;;;5058176;28;20272;-75
2023/06/19 11:58:48;;;;;;;;;;;30.30;56.90;;;;;;5075717;28;19978;-75
2023/06/19 12:01:14;;;;;;;;;;;30.40;57.30;;;;;;5076000;28;19908;-75
2023/06/19 12:03:40;;;;;;;;;;;30.40;54.00;;;;;;5075566;28;19915;-75
2023/06/19 12:06:06;;;;;;;;;;;30.50;56.00;;;;;;5075955;28;20337;-75
2023/06/19 12:08:33;;;;;;;;;;;30.50;56.00;;;;;;5057637;28;19958;-75
2023/06/19 12:10:58;;;;;;;;;;;30.50;56.80;;;;;;5057452;28;19989;-75
2023/06/19 12:13:24;;;;;;;;;;;30.70;56.60;;;;;;5057532;28;20423;-75
2023/06/19 12:15:50;;;;;;;;;;;30.90;56.50;;;;;;5075668;28;19915;-75
2023/06/19 12:18:15;;;;;;;;;;;30.90;55.80;;;;;;5075173;28;19909;-76
2023/06/19 12:20:41;;;;;;;;;;;30.90;54.60;;;;;;5075299;28;19908;-75
2023/06/19 12:23:06;;;;;;;;;;;30.90;53.40;;;;;;5075255;28;19946;-75
2023/06/19 12:25:32;;;;;;;;;;;31.00;55.10;;;;;;5075301;28;19939;-75
2023/06/19 12:27:57;;;;;;;;;;;31.00;54.70;;;;;;5075201;28;20440;-75
2023/06/19 12:30:23;;;;;;;;;;;31.10;52.30;;;;;;5075218;28;20007;-75
2023/06/19 12:32:49;;;;;;;;;;;31.10;54.60;;;;;;5075016;28;19909;-75
2023/06/19 12:35:15;;;;;;;7.00;5.25;;;31.30;57.30;;;;;;5074907;28;19930;-75
2023/06/19 12:37:41;;;;;;;6.97;5.57;;;31.50;55.20;;;;;;5074736;28;20494;-75
2023/06/19 12:40:10;;;;;;;5.38;4.80;;;31.70;55.10;;;;;;5074738;28;20043;-75
2023/06/19 12:42:37;;;;;;;7.07;5.38;;;31.80;53.70;;;;;;5074422;28;20028;-75
2023/06/19 12:45:03;;;;;;;8.73;5.55;;;31.70;53.30;;;;;;5074415;28;20476;-75
2023/06/19 12:47:29;;;;;;;6.68;5.18;;;31.70;50.80;;;;;;5074321;28;20033;-75
2023/06/19 12:49:54;;;;;;;5.32;4.72;;;31.70;52.80;;;;;;5074233;28;20081;-74
2023/06/19 12:52:20;;;;;;;5.73;5.23;;;31.90;54.80;;;;;;5074438;28;20037;-74
2023/06/19 12:54:45;;;;;;;6.87;5.23;;;32.00;53.80;;;;;;5074412;28;20069;-74
2023/06/19 12:57:11;;;;;;;7.68;5.82;;;32.10;54.40;;;;;;5074531;28;20052;-74
2023/06/19 12:59:37;;;;;;;6.07;5.28;;;32.10;55.70;;;;;;5074634;28;20025;-74
2023/06/19 13:02:03;;;;;;;6.00;5.22;;;32.00;54.50;;;;;;5074461;28;20037;-74
2023/06/19 13:04:28;;;;;;;6.32;5.10;;;32.00;52.40;;;;;;5056371;28;20029;-74
2023/06/19 13:06:54;;;;;;;6.53;5.40;;;32.00;51.70;;;;;;5074309;28;20491;-74
2023/06/19 13:09:20;;;;;;;7.57;5.53;;;31.90;51.10;;;;;;5056695;28;20384;-74
2023/06/19 13:11:45;;;;;;;6.05;5.00;;;31.80;51.80;;;;;;5074065;28;20437;-74
2023/06/19 13:14:11;;;;;;;5.90;5.30;;;31.70;51.80;;;;;;5073992;28;20092;-73
2023/06/19 13:16:37;;;;;;;7.10;5.80;;;31.80;53.50;;;;;;5074077;28;20349;-74
2023/06/19 13:19:02;;;;;;;6.20;5.30;;;31.80;53.30;;;;;;5071659;28;20065;-74
2023/06/19 13:21:28;;;;;;;6.55;5.88;;;31.80;52.80;;;;;;5073716;28;20033;-74
2023/06/19 13:23:54;;;;;;;7.50;6.00;;;31.80;54.10;;;;;;5072663;28;19908;-77
2023/06/19 13:26:19;;;;;;;5.90;5.28;;;31.80;52.40;;;;;;5072466;28;20062;-74
2023/06/19 13:28:45;;;;;;;6.80;5.30;;;31.80;54.60;;;;;;5054812;28;20078;-75
2023/06/19 13:31:12;;;;;;;6.57;5.13;;;31.90;54.90;;;;;;5072609;28;20511;-75
2023/06/19 13:33:37;;;;;;;6.90;5.87;;;32.00;54.60;;;;;;5073564;28;20480;-75
2023/06/19 13:36:03;;;;;;;6.68;5.32;;;32.20;53.50;;;;;;5072902;28;20025;-75
2023/06/19 13:38:29;;;;;;;8.18;5.80;;;32.30;51.70;;;;;;5055750;28;20196;-75
2023/06/19 13:40:54;;;;;;;7.97;5.47;;;32.20;51.90;;;;;;5055648;28;20033;-75
2023/06/19 13:43:23;;;;;;;6.00;5.35;;;32.20;53.90;;;;;;5073589;28;20032;-74
2023/06/19 13:45:49;;;;;;;9.63;5.90;;;32.20;54.00;;;;;;5073458;28;20485;-75
2023/06/19 13:48:14;;;;;;;8.43;5.57;;;32.00;53.60;;;;;;5072993;28;20040;-74
2023/06/19 13:50:40;;;;;;;8.98;5.57;;;31.80;53.10;;;;;;5073581;28;20043;-75
2023/06/19 13:53:06;;;;;;;9.95;5.68;;;31.80;55.00;;;;;;5055663;28;20032;-74
2023/06/19 13:55:32;;;;;;;9.50;6.50;;;31.70;54.00;;;;;;5073465;28;20025;-74
2023/06/19 13:57:57;;;;;;;6.65;5.85;;;31.50;54.30;;;;;;5073591;28;20040;-74
2023/06/19 14:00:23;;;;;;;7.30;5.90;;;31.30;55.60;;;;;;5073296;28;20025;-74